createdAt,value
2022-12-10T00:00:26.881Z,54.27
2022-12-10T00:02:53.231Z,47.47
2022-12-10T00:05:19.566Z,59.03
2022-12-10T00:07:45.952Z,52.10
2022-12-10T00:10:12.919Z,46.80
2022-12-10T00:12:39.390Z,48.27
2022-12-10T00:15:06.057Z,44.30
2022-12-10T00:17:32.417Z,56.50
2022-12-10T00:19:58.750Z,50.10
2022-12-10T00:22:25.101Z,56.60
2022-12-10T00:24:51.478Z,48.93
2022-12-10T00:27:17.989Z,57.30
2022-12-10T00:29:44.337Z,48.83
2022-12-10T00:32:10.755Z,50.67
2022-12-10T00:34:37.310Z,55.03
2022-12-10T00:37:03.679Z,49.73
2022-12-10T00:39:30.031Z,48.00
2022-12-10T00:41:56.350Z,46.10
2022-12-10T00:44:22.825Z,51.93
2022-12-10T00:46:49.274Z,50.27
2022-12-10T00:49:15.646Z,53.57
2022-12-10T00:51:42.015Z,43.87
2022-12-10T00:54:09.020Z,55.23
2022-12-10T00:56:35.778Z,53.20
2022-12-10T00:59:02.810Z,48.57
2022-12-10T01:01:32.513Z,48.60
2022-12-10T01:04:01.582Z,48.00
2022-12-10T01:06:40.873Z,53.17
2022-12-10T01:09:10.238Z,51.20
2022-12-10T01:11:41.284Z,56.57
2022-12-10T01:14:11.058Z,45.83
2022-12-10T01:16:38.041Z,48.27
2022-12-10T01:19:06.267Z,47.33
2022-12-10T01:21:32.649Z,42.50
2022-12-10T01:23:59.167Z,46.20
2022-12-10T01:26:28.885Z,55.87
2022-12-10T01:28:57.155Z,51.83
2022-12-10T01:31:35.158Z,52.57
2022-12-10T01:34:02.464Z,50.93
2022-12-10T01:36:35.008Z,45.33
2022-12-10T01:39:03.107Z,46.80
2022-12-10T01:41:37.021Z,49.10
2022-12-10T01:44:09.382Z,51.33
2022-12-10T01:46:40.894Z,51.73
2022-12-10T01:49:09.898Z,52.10
2022-12-10T01:51:38.958Z,53.60
2022-12-10T01:54:11.393Z,50.73
2022-12-10T01:56:43.727Z,51.70
2022-12-10T01:59:11.259Z,43.53
2022-12-10T02:01:49.940Z,43.97
2022-12-10T02:04:46.814Z,46.03
2022-12-10T02:07:19.141Z,47.40
2022-12-10T02:10:08.894Z,51.40
2022-12-10T02:12:46.000Z,52.30
2022-12-10T02:15:21.986Z,49.50
2022-12-10T02:17:56.309Z,54.63
2022-12-10T02:20:27.305Z,51.10
2022-12-10T02:22:57.638Z,41.90
2022-12-10T02:25:30.075Z,48.30
2022-12-10T02:28:06.591Z,41.87
2022-12-10T02:30:34.579Z,46.57
2022-12-10T02:33:04.850Z,49.40
2022-12-10T02:35:34.952Z,53.40
2022-12-10T02:38:13.530Z,41.57
2022-12-10T02:40:50.362Z,50.07
2022-12-10T02:43:18.216Z,47.07
2022-12-10T02:45:45.792Z,46.70
2022-12-10T02:48:14.510Z,43.77
2022-12-10T02:50:41.232Z,58.17
2022-12-10T02:53:07.638Z,48.00
2022-12-10T02:55:49.406Z,47.40
2022-12-10T02:58:44.309Z,49.37
2022-12-10T03:01:45.149Z,45.80
2022-12-10T03:04:21.522Z,50.33
2022-12-10T03:06:53.616Z,42.20
2022-12-10T03:09:26.480Z,51.53
2022-12-10T03:12:03.063Z,42.83
2022-12-10T03:14:31.722Z,52.90
2022-12-10T03:17:01.118Z,47.43
2022-12-10T03:19:40.086Z,41.63
2022-12-10T03:22:08.390Z,47.90
2022-12-10T03:24:36.541Z,45.47
2022-12-10T03:27:05.791Z,50.90
2022-12-10T03:29:44.411Z,45.60
2022-12-10T03:32:11.800Z,57.17
2022-12-10T03:34:39.171Z,49.43
2022-12-10T03:37:06.598Z,44.63
2022-12-10T03:39:33.820Z,50.97
2022-12-10T03:42:00.200Z,46.33
2022-12-10T03:44:35.339Z,46.97
2022-12-10T03:47:03.232Z,56.70
2022-12-10T03:49:29.593Z,54.40
2022-12-10T03:51:56.145Z,46.67
2022-12-10T03:54:22.568Z,53.87
2022-12-10T03:56:49.359Z,50.30
2022-12-10T03:59:15.913Z,46.87
2022-12-10T04:01:42.696Z,49.30
2022-12-10T04:04:09.740Z,55.00
2022-12-10T04:06:39.313Z,54.67
2022-12-10T04:09:06.362Z,49.83
2022-12-10T04:11:32.706Z,56.67
2022-12-10T04:14:17.772Z,56.40
2022-12-10T04:16:44.127Z,63.70
2022-12-10T04:19:12.648Z,56.13
2022-12-10T04:21:59.206Z,51.37
2022-12-10T04:24:47.253Z,50.10
2022-12-10T04:27:18.800Z,51.17
2022-12-10T04:29:45.471Z,48.17
2022-12-10T04:32:11.953Z,51.20
2022-12-10T04:34:38.315Z,55.47
2022-12-10T04:37:05.111Z,52.67
2022-12-10T04:39:31.851Z,51.00
2022-12-10T04:41:59.585Z,47.70
2022-12-10T04:44:25.909Z,45.80
2022-12-10T04:46:52.277Z,46.20
2022-12-10T04:49:18.681Z,45.07
2022-12-10T04:51:45.745Z,45.40
2022-12-10T04:54:13.159Z,44.43
2022-12-10T04:56:39.781Z,50.03
2022-12-10T04:59:06.133Z,44.63
2022-12-10T05:01:33.650Z,46.80
2022-12-10T05:04:01.972Z,42.50
2022-12-10T05:06:28.669Z,39.70
2022-12-10T05:08:55.240Z,45.83
2022-12-10T05:11:23.725Z,41.43
2022-12-10T05:13:53.658Z,48.67
2022-12-10T05:16:22.021Z,44.30
2022-12-10T05:18:48.655Z,44.03
2022-12-10T05:21:17.429Z,50.40
2022-12-10T05:23:47.158Z,39.93
2022-12-10T05:26:19.498Z,41.80
2022-12-10T05:28:54.422Z,46.73
2022-12-10T05:31:25.464Z,37.57
2022-12-10T05:33:53.484Z,38.50
2022-12-10T05:36:21.794Z,42.37
2022-12-10T05:38:48.494Z,40.70
2022-12-10T05:41:17.965Z,46.47
2022-12-10T05:43:45.127Z,38.63
2022-12-10T05:46:14.790Z,39.70
2022-12-10T05:48:41.549Z,38.40
2022-12-10T05:51:11.160Z,40.40
2022-12-10T05:53:37.901Z,39.50
2022-12-10T05:56:10.291Z,40.23
2022-12-10T05:58:37.482Z,40.57
2022-12-10T06:01:08.832Z,42.17
2022-12-10T06:03:35.192Z,42.63
2022-12-10T06:06:01.541Z,42.20
2022-12-10T06:08:27.891Z,40.17
2022-12-10T06:10:54.881Z,40.43
2022-12-10T06:13:21.305Z,40.77
2022-12-10T06:15:47.655Z,42.97
2022-12-10T06:18:14.058Z,36.67
2022-12-10T06:20:44.697Z,42.53
2022-12-10T06:23:13.549Z,40.97
2022-12-10T06:25:40.604Z,46.20
2022-12-10T06:28:07.972Z,43.43
2022-12-10T06:30:34.593Z,43.27
2022-12-10T06:33:01.403Z,49.27
2022-12-10T06:35:27.982Z,46.00
2022-12-10T06:37:54.310Z,43.77
2022-12-10T06:40:20.662Z,45.13
2022-12-10T06:42:46.978Z,44.87
2022-12-10T06:45:13.641Z,48.50
2022-12-10T06:47:43.043Z,41.77
2022-12-10T06:50:10.376Z,46.70
2022-12-10T06:52:36.940Z,48.57
2022-12-10T06:55:03.699Z,47.60
2022-12-10T06:57:30.140Z,44.30
2022-12-10T06:59:56.442Z,47.47
2022-12-10T07:02:22.861Z,49.80
2022-12-10T07:04:49.265Z,45.93
2022-12-10T07:07:15.598Z,42.20
2022-12-10T07:09:41.991Z,48.80
2022-12-10T07:12:08.298Z,55.77
2022-12-10T07:14:34.689Z,42.30
2022-12-10T07:17:03.095Z,44.60
2022-12-10T07:19:29.434Z,46.47
2022-12-10T07:21:55.803Z,49.40
2022-12-10T07:24:22.203Z,49.60
2022-12-10T07:26:48.670Z,51.83
2022-12-10T07:29:18.417Z,43.67
2022-12-10T07:31:45.180Z,52.63
2022-12-10T07:34:13.105Z,46.87
2022-12-10T07:36:39.582Z,51.00
2022-12-10T07:39:08.823Z,47.93
2022-12-10T07:41:37.080Z,55.13
2022-12-10T07:44:07.525Z,54.50
2022-12-10T07:46:34.640Z,57.67
2022-12-10T07:49:02.808Z,56.57
2022-12-10T07:51:30.549Z,51.43
2022-12-10T07:53:57.338Z,63.33
2022-12-10T07:56:25.317Z,58.40
2022-12-10T07:58:53.231Z,51.07
2022-12-10T08:01:24.847Z,59.37
2022-12-10T08:03:51.919Z,54.37
2022-12-10T08:06:21.077Z,60.67
2022-12-10T08:08:48.258Z,59.93
2022-12-10T08:11:15.952Z,51.63
2022-12-10T08:13:42.474Z,55.03
2022-12-10T08:16:12.731Z,55.40
2022-12-10T08:18:42.391Z,59.13
2022-12-10T08:21:12.090Z,62.33
2022-12-10T08:23:38.585Z,60.90
2022-12-10T08:26:06.441Z,59.87
2022-12-10T08:28:33.988Z,51.10
2022-12-10T08:31:00.361Z,52.53
2022-12-10T08:33:26.703Z,54.90
2022-12-10T08:35:53.014Z,59.30
2022-12-10T08:38:19.329Z,54.07
2022-12-10T08:40:45.633Z,58.00
2022-12-10T08:43:11.942Z,53.50
2022-12-10T08:45:38.382Z,46.20
2022-12-10T08:48:04.843Z,52.80
2022-12-10T08:50:31.146Z,45.47
2022-12-10T08:52:58.549Z,45.20
2022-12-10T08:55:25.091Z,49.87
2022-12-10T08:57:51.630Z,51.77
2022-12-10T09:00:19.687Z,50.70
2022-12-10T09:02:46.510Z,45.63
2022-12-10T09:05:13.795Z,45.77
2022-12-10T09:07:40.166Z,43.10
2022-12-10T09:10:07.360Z,46.83
2022-12-10T09:12:34.944Z,45.40
2022-12-10T09:15:01.269Z,38.13
2022-12-10T09:17:27.602Z,48.60
2022-12-10T09:19:53.938Z,42.10
2022-12-10T09:22:20.315Z,42.97
2022-12-10T09:24:46.644Z,42.00
2022-12-10T09:27:12.984Z,35.93
2022-12-10T09:29:39.350Z,40.87
2022-12-10T09:32:05.754Z,40.67
2022-12-10T09:34:32.143Z,43.47
2022-12-10T09:36:58.460Z,38.40
2022-12-10T09:39:24.837Z,39.20
2022-12-10T09:41:54.317Z,37.03
2022-12-10T09:44:32.594Z,36.63
2022-12-10T09:47:02.470Z,44.17
2022-12-10T09:49:59.270Z,48.70
2022-12-10T09:52:28.823Z,43.33
2022-12-10T09:55:05.054Z,43.97
2022-12-10T09:57:37.737Z,42.07
2022-12-10T10:00:20.805Z,43.27
2022-12-10T10:02:47.861Z,36.00
2022-12-10T10:05:27.354Z,39.80
2022-12-10T10:08:02.069Z,38.97
2022-12-10T10:10:32.770Z,36.73
2022-12-10T10:13:22.142Z,42.00
2022-12-10T10:15:48.671Z,38.07
2022-12-10T10:18:28.047Z,45.80
2022-12-10T10:20:55.154Z,42.73
2022-12-10T10:23:21.665Z,39.13
2022-12-10T10:25:48.010Z,34.87
2022-12-10T10:28:20.149Z,42.63
2022-12-10T10:30:46.837Z,41.83
2022-12-10T10:33:15.107Z,39.10
2022-12-10T10:35:48.953Z,41.00
2022-12-10T10:38:21.142Z,36.77
2022-12-10T10:40:55.065Z,42.63
2022-12-10T10:43:29.288Z,40.33
2022-12-10T10:46:02.032Z,32.87
2022-12-10T10:48:30.576Z,38.60
2022-12-10T10:51:08.546Z,39.33
2022-12-10T10:53:55.369Z,39.63
2022-12-10T10:56:27.609Z,39.50
2022-12-10T10:59:03.285Z,38.33
2022-12-10T11:01:47.433Z,39.33
2022-12-10T11:04:16.517Z,43.07
2022-12-10T11:06:45.095Z,34.90
2022-12-10T11:09:22.867Z,35.53
2022-12-10T11:11:58.196Z,45.53
2022-12-10T11:14:33.895Z,34.43
2022-12-10T11:17:10.505Z,34.57
2022-12-10T11:19:43.330Z,42.60
2022-12-10T11:22:20.504Z,39.30
2022-12-10T11:24:48.399Z,33.80
2022-12-10T11:27:52.069Z,46.30
2022-12-10T11:30:23.519Z,38.37
2022-12-10T11:32:49.849Z,37.00
2022-12-10T11:35:41.905Z,39.80
2022-12-10T11:38:29.866Z,40.10
2022-12-10T11:44:43.167Z,37.47
2022-12-10T11:47:15.485Z,38.03
2022-12-10T11:50:17.388Z,33.00
2022-12-10T11:53:12.896Z,29.27
2022-12-10T11:55:53.547Z,33.73
2022-12-10T11:58:49.766Z,36.87
2022-12-10T12:01:35.011Z,35.27
2022-12-10T12:04:28.585Z,34.20
2022-12-10T12:07:15.908Z,30.20
2022-12-10T12:10:01.691Z,29.37
2022-12-10T12:12:43.118Z,32.80
2022-12-10T12:15:35.561Z,30.83
2022-12-10T12:18:24.110Z,33.13
2022-12-10T12:20:58.370Z,33.77
2022-12-10T12:23:30.957Z,33.13
2022-12-10T12:26:11.742Z,30.43
2022-12-10T12:28:45.117Z,34.63
2022-12-10T12:31:42.879Z,28.67
2022-12-10T12:34:20.868Z,34.07
2022-12-10T12:36:48.225Z,29.97
2022-12-10T12:39:26.789Z,28.20
2022-12-10T12:42:14.716Z,30.87
2022-12-10T12:44:43.909Z,30.93
2022-12-10T12:47:45.442Z,30.20
2022-12-10T12:50:30.845Z,27.30
2022-12-10T12:53:00.252Z,24.67
2022-12-10T12:55:44.634Z,24.57
2022-12-10T12:58:22.577Z,25.07
2022-12-10T13:00:52.822Z,21.77
2022-12-10T13:03:42.088Z,27.40
2022-12-10T13:06:20.110Z,22.40
2022-12-10T13:09:15.081Z,25.47
2022-12-10T13:11:48.250Z,22.47
2022-12-10T13:14:36.407Z,20.57
2022-12-10T13:17:18.102Z,22.50
2022-12-10T13:19:53.027Z,22.73
2022-12-10T13:22:43.214Z,20.40
2022-12-10T13:25:18.956Z,22.83
2022-12-10T13:28:19.302Z,18.30
2022-12-10T13:31:17.914Z,23.73
2022-12-10T13:34:02.711Z,21.40
2022-12-10T13:37:01.154Z,27.83
2022-12-10T13:39:43.143Z,24.27
2022-12-10T13:42:31.491Z,23.50
2022-12-10T13:45:26.459Z,21.37
2022-12-10T13:48:28.923Z,21.77
2022-12-10T13:51:11.604Z,24.20
2022-12-10T13:54:07.367Z,22.63
2022-12-10T13:56:56.231Z,22.67
2022-12-10T14:00:01.375Z,18.90
2022-12-10T14:02:55.443Z,22.00
2022-12-10T14:05:41.543Z,21.50
2022-12-10T14:08:17.325Z,24.47
2022-12-10T14:10:44.159Z,21.77
2022-12-10T14:13:14.006Z,22.03
2022-12-10T14:15:41.691Z,26.47
2022-12-10T14:18:15.374Z,23.47
2022-12-10T14:20:47.783Z,25.33
2022-12-10T14:23:45.684Z,25.70
2022-12-10T14:26:15.910Z,24.27
2022-12-10T14:28:49.251Z,19.90
2022-12-10T14:31:20.431Z,22.77
2022-12-10T14:33:50.018Z,28.57
2022-12-10T14:36:32.629Z,26.63
2022-12-10T14:39:00.744Z,22.97
2022-12-10T14:41:29.914Z,22.87
2022-12-10T14:44:02.053Z,22.47
2022-12-10T14:46:30.729Z,22.30
2022-12-10T14:48:57.112Z,23.20
2022-12-10T14:51:26.402Z,22.80
2022-12-10T14:53:54.662Z,23.40
2022-12-10T14:56:34.582Z,21.30
2022-12-10T14:59:00.869Z,24.53
2022-12-10T15:01:32.251Z,22.23
2022-12-10T15:04:02.475Z,21.50
2022-12-10T15:06:33.378Z,22.73
2022-12-10T15:09:00.284Z,22.90
2022-12-10T15:11:28.261Z,27.07
2022-12-10T15:13:59.800Z,27.27
2022-12-10T15:16:40.119Z,29.60
2022-12-10T15:19:19.807Z,32.43
2022-12-10T15:21:48.159Z,28.33
2022-12-10T15:24:28.034Z,25.30
2022-12-10T15:26:54.746Z,23.57
2022-12-10T15:29:28.028Z,22.90
2022-12-10T15:31:58.552Z,33.40
2022-12-10T15:34:28.261Z,27.60
2022-12-10T15:37:00.647Z,27.73
2022-12-10T15:39:30.066Z,26.80
2022-12-10T15:41:59.482Z,32.13
2022-12-10T15:44:36.235Z,28.27
2022-12-10T15:47:24.048Z,31.30
2022-12-10T15:49:53.226Z,26.70
2022-12-10T15:52:25.344Z,26.83
2022-12-10T15:54:54.051Z,28.70
2022-12-10T15:57:27.101Z,29.77
2022-12-10T15:59:59.829Z,26.70
2022-12-10T16:02:31.294Z,30.30
2022-12-10T16:04:57.750Z,34.57
2022-12-10T16:11:37.284Z,35.57
2022-12-10T16:14:04.331Z,33.90
2022-12-10T16:16:30.730Z,35.27
2022-12-10T16:18:57.143Z,31.67
2022-12-10T16:21:23.540Z,27.10
2022-12-10T16:23:50.198Z,27.83
2022-12-10T16:26:20.286Z,28.30
2022-12-10T16:28:47.713Z,31.10
2022-12-10T16:31:20.138Z,38.70
2022-12-10T16:33:48.137Z,34.17
2022-12-10T16:36:14.574Z,28.40
2022-12-10T16:38:41.349Z,32.67
2022-12-10T16:41:16.487Z,30.90
2022-12-10T16:43:42.899Z,33.80
2022-12-10T16:46:12.281Z,37.60
2022-12-10T16:48:38.938Z,28.70
2022-12-10T16:51:14.524Z,26.90
2022-12-10T16:53:41.165Z,27.43
2022-12-10T16:56:08.155Z,37.67
2022-12-10T16:58:34.557Z,27.27
2022-12-10T17:01:02.262Z,29.57
2022-12-10T17:03:31.274Z,35.03
2022-12-10T17:06:00.769Z,31.73
2022-12-10T17:08:28.999Z,30.77
2022-12-10T17:11:16.210Z,24.10
2022-12-10T17:13:42.864Z,25.90
2022-12-10T17:16:21.776Z,32.53
2022-12-10T17:18:48.732Z,34.17
2022-12-10T17:21:15.183Z,39.37
2022-12-10T17:23:41.755Z,34.80
2022-12-10T17:26:09.778Z,32.80
2022-12-10T17:28:36.178Z,33.83
2022-12-10T17:31:02.516Z,39.23
2022-12-10T17:33:28.959Z,39.37
2022-12-10T17:35:55.384Z,34.77
2022-12-10T17:38:26.319Z,33.63
2022-12-10T17:40:54.329Z,34.93
2022-12-10T17:43:20.719Z,34.30
2022-12-10T17:45:47.840Z,35.60
2022-12-10T17:48:16.658Z,31.83
2022-12-10T17:50:45.075Z,47.83
2022-12-10T17:53:15.249Z,34.03
2022-12-10T17:55:48.245Z,31.77
2022-12-10T17:58:15.730Z,65.43
2022-12-10T18:00:43.546Z,34.50
2022-12-10T18:03:10.086Z,33.00
2022-12-10T18:05:36.438Z,35.87
2022-12-10T18:08:03.144Z,33.30
2022-12-10T18:10:32.948Z,29.53
2022-12-10T18:13:00.465Z,38.33
2022-12-10T18:15:29.727Z,33.43
2022-12-10T18:17:56.990Z,32.43
2022-12-10T18:20:30.040Z,29.10
2022-12-10T18:22:57.952Z,29.93
2022-12-10T18:25:24.427Z,26.83
2022-12-10T18:27:51.705Z,27.77
2022-12-10T18:30:21.243Z,35.20
2022-12-10T18:32:48.029Z,32.13
2022-12-10T18:35:14.745Z,35.23
2022-12-10T18:37:42.205Z,33.33
2022-12-10T18:40:15.326Z,34.73
2022-12-10T18:42:46.914Z,38.87
2022-12-10T18:45:14.046Z,30.17
2022-12-10T18:47:40.426Z,31.73
2022-12-10T18:50:25.802Z,35.60
2022-12-10T18:52:53.245Z,37.10
2022-12-10T18:55:21.459Z,38.27
2022-12-10T18:57:56.239Z,36.23
2022-12-10T19:00:25.050Z,44.77
2022-12-10T19:02:51.400Z,44.20
2022-12-10T19:05:18.992Z,40.33
2022-12-10T19:07:46.279Z,47.73
2022-12-10T19:10:17.233Z,46.93
2022-12-10T19:12:43.933Z,45.70
2022-12-10T19:15:13.588Z,44.30
2022-12-10T19:17:41.352Z,53.73
2022-12-10T19:20:14.536Z,36.63
2022-12-10T19:22:40.846Z,38.07
2022-12-10T19:25:07.910Z,41.73
2022-12-10T19:27:34.671Z,47.07
2022-12-10T19:30:01.033Z,38.87
2022-12-10T19:32:27.885Z,42.00
2022-12-10T19:34:54.205Z,39.07
2022-12-10T19:37:20.531Z,42.70
2022-12-10T19:39:46.869Z,41.33
2022-12-10T19:42:13.278Z,39.00
2022-12-10T19:44:39.617Z,40.20
2022-12-10T19:47:15.582Z,40.77
2022-12-10T19:49:41.932Z,46.73
2022-12-10T19:52:08.370Z,42.83
2022-12-10T19:54:34.710Z,44.30
2022-12-10T19:57:01.073Z,45.50
2022-12-10T19:59:27.493Z,43.33
2022-12-10T20:01:53.879Z,43.20
2022-12-10T20:04:20.390Z,45.07
2022-12-10T20:06:48.599Z,41.93
2022-12-10T20:09:20.499Z,41.90
2022-12-10T20:11:47.365Z,39.50
2022-12-10T20:14:13.726Z,44.53
2022-12-10T20:16:41.618Z,42.73
2022-12-10T20:19:11.284Z,40.57
2022-12-10T20:21:37.661Z,41.30
2022-12-10T20:24:04.289Z,41.03
2022-12-10T20:26:34.591Z,39.17
2022-12-10T20:29:02.619Z,35.07
2022-12-10T20:31:29.987Z,43.33
2022-12-10T20:33:56.810Z,43.83
2022-12-10T20:36:25.905Z,42.87
2022-12-10T20:38:53.071Z,50.50
2022-12-10T20:41:20.662Z,34.87
2022-12-10T20:43:47.838Z,36.70
2022-12-10T20:46:20.155Z,41.87
2022-12-10T20:48:47.329Z,46.53
2022-12-10T20:51:13.801Z,41.53
2022-12-10T20:53:40.613Z,41.17
2022-12-10T20:56:12.316Z,47.07
2022-12-10T20:58:38.649Z,45.87
2022-12-10T21:01:05.281Z,43.90
2022-12-10T21:03:31.771Z,36.50
2022-12-10T21:05:58.183Z,39.83
2022-12-10T21:08:24.566Z,37.30
2022-12-10T21:10:56.960Z,39.17
2022-12-10T21:13:26.568Z,33.87
2022-12-10T21:15:55.699Z,34.20
2022-12-10T21:18:24.130Z,32.43
2022-12-10T21:20:50.823Z,36.40
2022-12-10T21:23:20.214Z,36.40
2022-12-10T21:25:47.046Z,35.30
2022-12-10T21:28:14.241Z,41.33
2022-12-10T21:30:44.289Z,39.20
2022-12-10T21:33:11.033Z,41.93
2022-12-10T21:35:37.461Z,43.53
2022-12-10T21:38:04.989Z,44.13
2022-12-10T21:40:31.585Z,38.73
2022-12-10T21:43:16.186Z,33.27
2022-12-10T21:45:50.392Z,38.87
2022-12-10T21:48:20.061Z,45.00
2022-12-10T21:50:47.893Z,38.50
2022-12-10T21:53:15.174Z,47.10
2022-12-10T21:55:43.396Z,35.93
2022-12-10T21:58:10.479Z,36.10
2022-12-10T22:00:37.168Z,42.90
2022-12-10T22:03:04.606Z,42.77
2022-12-10T22:05:31.061Z,44.30
2022-12-10T22:07:57.491Z,42.33
2022-12-10T22:10:24.066Z,48.50
2022-12-10T22:12:50.447Z,41.30
2022-12-10T22:15:17.031Z,36.53
2022-12-10T22:17:43.386Z,35.00
2022-12-10T22:20:10.265Z,37.30
2022-12-10T22:22:36.943Z,37.40
2022-12-10T22:25:03.616Z,38.67
2022-12-10T22:27:32.990Z,37.73
2022-12-10T22:30:00.476Z,41.63
2022-12-10T22:32:27.788Z,38.30
2022-12-10T22:34:54.501Z,40.93
2022-12-10T22:37:21.195Z,39.60
2022-12-10T22:39:47.735Z,38.27
2022-12-10T22:42:14.441Z,39.23
2022-12-10T22:44:40.951Z,35.43
2022-12-10T22:47:07.290Z,43.07
2022-12-10T22:49:38.813Z,35.50
2022-12-10T22:52:05.582Z,38.57
2022-12-10T22:54:32.144Z,43.77
2022-12-10T22:56:58.527Z,41.17
2022-12-10T22:59:24.905Z,36.77
2022-12-10T23:01:51.317Z,35.30
2022-12-10T23:04:17.875Z,35.33
2022-12-10T23:06:44.250Z,39.87
2022-12-10T23:09:10.575Z,37.70
2022-12-10T23:11:36.906Z,37.97
2022-12-10T23:14:03.335Z,40.07
2022-12-10T23:16:29.917Z,38.70
2022-12-10T23:18:56.306Z,35.70
2022-12-10T23:21:26.556Z,42.40
2022-12-10T23:23:53.610Z,41.43
2022-12-10T23:26:21.102Z,50.63
2022-12-10T23:28:48.335Z,47.07
2022-12-10T23:31:15.740Z,42.40
2022-12-10T23:33:42.178Z,48.07
2022-12-10T23:36:09.503Z,47.33
2022-12-10T23:38:37.043Z,39.80
2022-12-10T23:41:08.447Z,42.43
2022-12-10T23:43:35.409Z,48.20
2022-12-10T23:46:02.399Z,43.90
2022-12-10T23:48:29.084Z,50.10
2022-12-10T23:50:59.941Z,48.00
2022-12-10T23:53:27.355Z,45.80
2022-12-10T23:55:53.758Z,66.83
2022-12-10T23:58:21.079Z,58.10
